createdAt,value
2018-06-30T00:00:46.101Z,72.15
2018-06-30T00:03:14.452Z,72.74
2018-06-30T00:05:42.793Z,72.16
2018-06-30T00:08:12.030Z,72.18
2018-06-30T00:10:40.361Z,73.38
2018-06-30T00:13:08.659Z,73.41
2018-06-30T00:15:36.827Z,74.14
2018-06-30T00:18:07.189Z,73.85
2018-06-30T00:20:35.683Z,73.14
2018-06-30T00:23:04.358Z,73.54
2018-06-30T00:25:32.519Z,74.31
2018-06-30T00:28:01.206Z,74.77
2018-06-30T00:30:29.560Z,75.10
2018-06-30T00:33:01.127Z,74.76
2018-06-30T00:35:29.342Z,75.10
2018-06-30T00:37:57.561Z,75.29
2018-06-30T00:40:25.751Z,74.67
2018-06-30T00:42:54.048Z,76.11
2018-06-30T00:45:22.208Z,76.16
2018-06-30T00:47:50.471Z,75.74
2018-06-30T00:50:19.165Z,75.73
2018-06-30T00:52:47.423Z,76.85
2018-06-30T00:55:15.612Z,77.46
2018-06-30T00:57:43.754Z,76.56
2018-06-30T01:00:12.711Z,76.58
2018-06-30T01:02:41.011Z,77.05
2018-06-30T01:05:09.774Z,78.14
2018-06-30T01:07:37.943Z,77.45
2018-06-30T01:10:06.408Z,77.22
2018-06-30T01:12:34.665Z,77.44
2018-06-30T01:15:03.048Z,77.95
2018-06-30T01:17:31.317Z,78.13
2018-06-30T01:19:59.724Z,77.66
2018-06-30T01:22:28.106Z,78.30
2018-06-30T01:24:56.467Z,78.01
2018-06-30T01:27:24.696Z,78.64
2018-06-30T01:29:52.878Z,77.85
2018-06-30T01:32:21.156Z,78.24
2018-06-30T01:34:49.303Z,77.50
2018-06-30T01:37:17.562Z,78.48
2018-06-30T01:39:45.797Z,78.46
2018-06-30T01:42:14.483Z,78.00
2018-06-30T01:44:42.693Z,79.13
2018-06-30T01:47:11.433Z,77.81
2018-06-30T01:49:39.733Z,79.27
2018-06-30T01:52:08.130Z,79.64
2018-06-30T01:54:36.330Z,78.29
2018-06-30T01:57:04.645Z,79.12
2018-06-30T01:59:32.958Z,79.29
2018-06-30T02:02:01.347Z,78.64
2018-06-30T02:04:29.590Z,78.40
2018-06-30T02:06:57.916Z,78.17
2018-06-30T02:09:26.092Z,78.47
2018-06-30T02:11:54.262Z,79.60
2018-06-30T02:14:22.545Z,79.63
2018-06-30T02:16:50.861Z,80.44
2018-06-30T02:19:19.022Z,79.72
2018-06-30T02:21:47.244Z,79.89
2018-06-30T02:24:15.818Z,80.43
2018-06-30T02:26:44.090Z,81.05
2018-06-30T02:29:12.286Z,81.22
2018-06-30T02:31:40.498Z,80.49
2018-06-30T02:34:08.790Z,80.65
2018-06-30T02:36:37.156Z,80.11
2018-06-30T02:39:07.801Z,80.32
2018-06-30T02:41:36.126Z,80.87
2018-06-30T02:44:04.465Z,81.67
2018-06-30T02:46:32.909Z,82.43
2018-06-30T02:49:01.357Z,81.86
2018-06-30T02:51:29.773Z,82.01
2018-06-30T02:53:58.105Z,82.06
2018-06-30T02:56:26.550Z,82.79
2018-06-30T02:58:55.150Z,83.15
2018-06-30T03:01:23.389Z,82.17
2018-06-30T03:03:51.594Z,82.35
2018-06-30T03:06:20.325Z,82.80
2018-06-30T03:08:48.513Z,81.33
2018-06-30T03:11:16.622Z,82.08
2018-06-30T03:13:44.897Z,82.91
2018-06-30T03:16:15.862Z,83.46
2018-06-30T03:18:44.884Z,84.03
2018-06-30T03:21:13.390Z,83.97
2018-06-30T03:23:41.666Z,84.55
2018-06-30T03:26:10.079Z,85.52
2018-06-30T03:28:38.438Z,84.47
2018-06-30T03:31:07.751Z,85.73
2018-06-30T03:33:36.002Z,84.44
2018-06-30T03:36:04.378Z,84.23
2018-06-30T03:38:32.687Z,84.99
2018-06-30T03:41:00.923Z,85.63
2018-06-30T03:43:29.216Z,85.37
2018-06-30T03:45:57.523Z,85.00
2018-06-30T03:48:25.828Z,85.46
2018-06-30T03:50:54.111Z,84.56
2018-06-30T03:53:22.585Z,85.36
2018-06-30T03:55:51.142Z,84.37
2018-06-30T03:58:19.471Z,85.03
2018-06-30T04:00:47.890Z,84.07
2018-06-30T04:03:16.067Z,84.90
2018-06-30T04:05:44.389Z,84.01
2018-06-30T04:08:13.274Z,84.75
2018-06-30T04:10:41.722Z,83.59
2018-06-30T04:13:10.009Z,82.98
2018-06-30T04:15:38.193Z,83.29
2018-06-30T04:18:06.435Z,83.69
2018-06-30T04:20:34.766Z,82.94
2018-06-30T04:23:03.124Z,83.49
2018-06-30T04:25:31.778Z,83.45
2018-06-30T04:28:00.076Z,83.22
2018-06-30T04:30:28.347Z,82.49
2018-06-30T04:32:56.570Z,82.84
2018-06-30T04:35:25.365Z,82.56
2018-06-30T04:37:53.593Z,81.01
2018-06-30T04:40:21.822Z,81.82
2018-06-30T04:42:50.236Z,80.95
2018-06-30T04:45:18.827Z,80.85
2018-06-30T04:47:47.001Z,80.82
2018-06-30T04:50:15.307Z,80.45
2018-06-30T04:52:43.550Z,79.41
2018-06-30T04:55:11.926Z,80.50
2018-06-30T04:57:40.068Z,79.39
2018-06-30T05:00:08.274Z,80.90
2018-06-30T05:02:36.382Z,80.99
2018-06-30T05:05:04.574Z,80.91
2018-06-30T05:07:32.850Z,79.74
2018-06-30T05:10:01.071Z,81.34
2018-06-30T05:12:29.897Z,80.09
2018-06-30T05:14:58.124Z,80.85
2018-06-30T05:17:27.059Z,79.89
2018-06-30T05:19:55.328Z,79.79
2018-06-30T05:22:23.672Z,78.27
2018-06-30T05:24:51.977Z,78.89
2018-06-30T05:27:20.299Z,76.83
2018-06-30T05:29:48.627Z,76.67
2018-06-30T05:32:16.875Z,77.20
2018-06-30T05:34:45.331Z,76.58
2018-06-30T05:37:14.274Z,74.96
2018-06-30T05:39:42.986Z,74.48
2018-06-30T05:42:11.570Z,75.68
2018-06-30T05:44:39.920Z,74.78
2018-06-30T05:47:08.287Z,73.50
2018-06-30T05:49:36.620Z,69.29
2018-06-30T05:52:05.076Z,65.72
2018-06-30T05:54:33.913Z,63.66
2018-06-30T05:57:02.240Z,58.58
2018-06-30T05:59:30.879Z,58.89
2018-06-30T06:01:59.197Z,55.79
2018-06-30T06:04:27.569Z,59.18
2018-06-30T06:06:55.801Z,58.26
2018-06-30T06:09:24.285Z,55.11
2018-06-30T06:11:57.559Z,55.24
2018-06-30T06:14:26.019Z,56.95
2018-06-30T06:16:54.484Z,55.98
2018-06-30T06:19:22.870Z,52.32
2018-06-30T06:21:51.216Z,50.18
2018-06-30T06:24:19.571Z,49.71
2018-06-30T06:26:47.815Z,48.71
2018-06-30T06:29:16.810Z,46.71
2018-06-30T06:31:50.582Z,47.02
2018-06-30T06:34:18.965Z,50.01
2018-06-30T06:36:47.325Z,50.12
2018-06-30T06:39:16.178Z,53.66
2018-06-30T06:41:45.350Z,52.77
2018-06-30T06:44:13.853Z,50.54
2018-06-30T06:46:42.201Z,50.96
2018-06-30T06:49:10.857Z,46.81
2018-06-30T06:51:39.891Z,47.71
2018-06-30T06:54:08.274Z,46.16
2018-06-30T06:56:37.069Z,45.99
2018-06-30T06:59:07.005Z,46.72
2018-06-30T07:01:35.513Z,44.33
2018-06-30T07:04:03.864Z,48.51
2018-06-30T07:06:32.201Z,52.69
2018-06-30T07:09:01.543Z,47.67
2018-06-30T07:11:29.901Z,48.78
2018-06-30T07:13:58.361Z,46.51
2018-06-30T07:16:26.707Z,47.86
2018-06-30T07:18:55.216Z,46.44
2018-06-30T07:21:23.843Z,47.96
2018-06-30T07:23:51.984Z,48.02
2018-06-30T07:26:20.417Z,50.27
2018-06-30T07:28:48.811Z,48.62
2018-06-30T07:31:25.976Z,48.97
2018-06-30T07:33:54.325Z,48.18
2018-06-30T07:36:22.916Z,50.25
2018-06-30T07:38:51.995Z,50.99
2018-06-30T07:41:24.958Z,52.87
2018-06-30T07:43:53.562Z,53.19
2018-06-30T07:46:23.603Z,54.34
2018-06-30T07:48:52.040Z,52.32
2018-06-30T07:51:20.963Z,52.12
2018-06-30T07:53:49.366Z,51.29
2018-06-30T07:56:17.686Z,50.56
2018-06-30T07:58:46.326Z,50.74
2018-06-30T08:01:15.293Z,50.99
2018-06-30T08:03:44.102Z,51.26
2018-06-30T08:06:12.487Z,49.95
2018-06-30T08:08:40.725Z,49.78
2018-06-30T08:11:09.023Z,48.06
2018-06-30T08:13:37.395Z,46.89
2018-06-30T08:16:06.310Z,46.29
2018-06-30T08:18:35.134Z,47.84
2018-06-30T08:21:04.285Z,48.05
2018-06-30T08:23:33.166Z,46.92
2018-06-30T08:26:01.847Z,46.91
2018-06-30T08:28:30.256Z,47.14
2018-06-30T08:30:58.629Z,46.14
2018-06-30T08:33:26.888Z,45.89
2018-06-30T08:35:55.356Z,46.32
2018-06-30T08:38:23.962Z,45.60
2018-06-30T08:40:52.642Z,45.94
2018-06-30T08:43:20.995Z,45.82
2018-06-30T08:45:49.403Z,44.18
2018-06-30T08:48:18.075Z,44.25
2018-06-30T08:50:47.792Z,44.64
2018-06-30T08:53:16.571Z,44.68
2018-06-30T08:55:44.967Z,46.80
2018-06-30T08:58:13.284Z,44.07
2018-06-30T09:00:42.315Z,44.86
2018-06-30T09:03:10.833Z,45.23
2018-06-30T09:05:39.438Z,42.95
2018-06-30T09:08:08.057Z,43.34
2018-06-30T09:10:36.977Z,42.58
2018-06-30T09:13:05.698Z,43.85
2018-06-30T09:15:34.201Z,44.62
2018-06-30T09:18:03.394Z,43.08
2018-06-30T09:20:31.754Z,42.47
2018-06-30T09:23:00.210Z,43.72
2018-06-30T09:25:28.649Z,42.88
2018-06-30T09:27:57.461Z,43.22
2018-06-30T09:30:26.394Z,42.00
2018-06-30T09:32:55.564Z,42.29
2018-06-30T09:35:24.317Z,42.26
2018-06-30T09:37:54.272Z,41.25
2018-06-30T09:40:22.770Z,40.47
2018-06-30T09:42:51.608Z,41.48
2018-06-30T09:45:19.944Z,41.83
2018-06-30T09:47:48.268Z,40.74
2018-06-30T09:50:16.739Z,43.97
2018-06-30T09:52:45.190Z,42.05
2018-06-30T09:55:14.598Z,41.86
2018-06-30T09:57:47.137Z,40.91
2018-06-30T10:00:21.262Z,40.38
2018-06-30T10:02:49.746Z,39.65
2018-06-30T10:05:18.044Z,39.97
2018-06-30T10:07:46.342Z,42.99
2018-06-30T10:10:15.121Z,41.63
2018-06-30T10:12:44.728Z,42.45
2018-06-30T10:15:13.141Z,40.84
2018-06-30T10:17:41.587Z,40.06
2018-06-30T10:20:10.169Z,41.37
2018-06-30T10:22:38.822Z,43.66
2018-06-30T10:25:07.419Z,44.29
2018-06-30T10:27:36.931Z,42.68
2018-06-30T10:30:06.242Z,42.79
2018-06-30T10:32:34.640Z,41.49
2018-06-30T10:35:03.365Z,41.31
2018-06-30T10:37:31.933Z,39.99
2018-06-30T10:40:05.258Z,39.39
2018-06-30T10:42:33.686Z,38.99
2018-06-30T10:45:02.444Z,38.54
2018-06-30T10:47:31.307Z,38.06
2018-06-30T10:50:00.083Z,37.62
2018-06-30T10:52:28.886Z,38.83
2018-06-30T10:54:58.093Z,38.39
2018-06-30T10:57:30.934Z,38.22
2018-06-30T11:00:00.786Z,38.92
2018-06-30T11:02:29.387Z,38.17
2018-06-30T11:04:58.108Z,38.21
2018-06-30T11:07:26.454Z,39.09
2018-06-30T11:09:54.826Z,38.19
2018-06-30T11:12:23.064Z,40.05
2018-06-30T11:14:51.552Z,39.38
2018-06-30T11:17:20.076Z,37.51
2018-06-30T11:19:48.369Z,36.59
2018-06-30T11:22:18.963Z,36.11
2018-06-30T11:24:47.346Z,36.82
2018-06-30T11:27:16.852Z,37.28
2018-06-30T11:29:45.226Z,38.06
2018-06-30T11:32:13.688Z,36.52
2018-06-30T11:34:42.447Z,36.08
2018-06-30T11:37:10.856Z,36.13
2018-06-30T11:39:39.468Z,35.91
2018-06-30T11:42:08.556Z,36.75
2018-06-30T11:44:42.118Z,37.64
2018-06-30T11:47:10.649Z,37.98
2018-06-30T11:49:39.088Z,39.21
2018-06-30T11:52:07.513Z,39.03
2018-06-30T11:54:36.375Z,38.42
2018-06-30T11:57:06.262Z,38.58
2018-06-30T11:59:34.786Z,39.47
2018-06-30T12:02:04.198Z,39.02
2018-06-30T12:04:32.574Z,39.42
2018-06-30T12:07:05.199Z,37.55
2018-06-30T12:09:33.617Z,35.63
2018-06-30T12:12:01.990Z,36.55
2018-06-30T12:14:30.333Z,35.13
2018-06-30T12:16:58.681Z,36.22
2018-06-30T12:19:27.058Z,36.83
2018-06-30T12:21:55.564Z,38.14
2018-06-30T12:24:24.064Z,39.95
2018-06-30T12:26:52.595Z,38.98
2018-06-30T12:29:21.255Z,39.77
2018-06-30T12:31:49.612Z,40.10
2018-06-30T12:34:17.869Z,39.58
2018-06-30T12:36:46.527Z,40.77
2018-06-30T12:39:14.990Z,38.64
2018-06-30T12:41:43.555Z,35.83
2018-06-30T12:44:13.815Z,36.75
2018-06-30T12:46:43.260Z,37.67
2018-06-30T12:49:11.657Z,35.97
2018-06-30T12:51:40.098Z,38.02
2018-06-30T12:54:09.573Z,39.03
2018-06-30T12:56:38.382Z,38.28
2018-06-30T12:59:07.224Z,37.66
2018-06-30T13:01:36.173Z,37.88
2018-06-30T13:04:05.406Z,37.07
2018-06-30T13:06:33.816Z,38.23
2018-06-30T13:09:03.788Z,37.83
2018-06-30T13:11:32.305Z,37.79
2018-06-30T13:14:06.508Z,39.22
2018-06-30T13:16:35.906Z,39.66
2018-06-30T13:19:04.287Z,39.42
2018-06-30T13:21:32.860Z,41.72
2018-06-30T13:24:01.485Z,39.76
2018-06-30T13:26:29.892Z,42.41
2018-06-30T13:28:58.319Z,41.47
2018-06-30T13:31:27.063Z,40.51
2018-06-30T13:33:55.406Z,41.72
2018-06-30T13:36:23.982Z,42.13
2018-06-30T13:38:52.476Z,40.93
2018-06-30T13:41:20.806Z,42.25
2018-06-30T13:43:49.324Z,40.81
2018-06-30T13:46:17.708Z,38.91
2018-06-30T13:48:45.987Z,37.90
2018-06-30T13:51:15.152Z,39.51
2018-06-30T13:53:45.427Z,39.70
2018-06-30T13:56:14.286Z,40.35
2018-06-30T13:58:42.592Z,40.62
2018-06-30T14:01:10.878Z,41.41
2018-06-30T14:03:39.184Z,40.98
2018-06-30T14:06:07.550Z,42.68
2018-06-30T14:08:35.764Z,41.28
2018-06-30T14:11:04.351Z,42.08
2018-06-30T14:13:32.810Z,41.70
2018-06-30T14:16:15.547Z,41.54
2018-06-30T14:18:44.023Z,43.13
2018-06-30T14:21:12.473Z,42.24
2018-06-30T14:23:41.175Z,42.58
2018-06-30T14:26:09.566Z,41.34
2018-06-30T14:28:38.717Z,40.95
2018-06-30T14:31:07.051Z,40.86
2018-06-30T14:33:35.280Z,42.60
2018-06-30T14:36:03.695Z,41.95
2018-06-30T14:38:32.092Z,40.35
2018-06-30T14:41:00.284Z,38.96
2018-06-30T14:43:28.691Z,41.25
2018-06-30T14:45:56.949Z,42.99
2018-06-30T14:48:25.249Z,40.48
2018-06-30T14:50:53.442Z,40.57
2018-06-30T14:53:21.779Z,41.31
2018-06-30T14:55:50.249Z,41.30
2018-06-30T14:58:19.141Z,39.84
2018-06-30T15:00:47.517Z,39.55
2018-06-30T15:03:15.918Z,39.72
2018-06-30T15:05:44.215Z,39.33
2018-06-30T15:08:12.965Z,39.16
2018-06-30T15:10:41.503Z,41.36
2018-06-30T15:13:09.975Z,42.14
2018-06-30T15:15:38.825Z,41.91
2018-06-30T15:18:07.164Z,40.61
2018-06-30T15:20:35.541Z,40.44
2018-06-30T15:23:04.177Z,40.45
2018-06-30T15:25:32.597Z,40.74
2018-06-30T15:28:00.940Z,39.51
2018-06-30T15:30:29.792Z,37.76
2018-06-30T15:32:58.670Z,37.72
2018-06-30T15:35:26.924Z,37.70
2018-06-30T15:37:55.179Z,37.29
2018-06-30T15:40:24.024Z,37.22
2018-06-30T15:42:52.401Z,37.54
2018-06-30T15:45:21.314Z,38.81
2018-06-30T15:47:49.807Z,39.83
2018-06-30T15:50:18.714Z,38.94
2018-06-30T15:52:47.059Z,40.64
2018-06-30T15:55:15.416Z,40.33
2018-06-30T15:57:43.746Z,39.83
2018-06-30T16:00:12.228Z,39.70
2018-06-30T16:02:40.749Z,40.39
2018-06-30T16:05:09.026Z,39.35
2018-06-30T16:07:37.371Z,39.67
2018-06-30T16:10:05.786Z,39.94
2018-06-30T16:12:34.038Z,39.89
2018-06-30T16:15:02.767Z,39.77
2018-06-30T16:17:31.119Z,38.17
2018-06-30T16:19:59.493Z,38.59
2018-06-30T16:22:27.858Z,38.49
2018-06-30T16:24:56.010Z,39.56
2018-06-30T16:27:24.849Z,40.02
2018-06-30T16:29:53.182Z,40.33
2018-06-30T16:32:22.323Z,39.94
2018-06-30T16:34:50.784Z,39.77
2018-06-30T16:37:19.374Z,39.72
2018-06-30T16:39:47.565Z,39.65
2018-06-30T16:42:16.095Z,38.99
2018-06-30T16:44:44.773Z,40.08
2018-06-30T16:47:13.088Z,38.19
2018-06-30T16:49:42.261Z,37.34
2018-06-30T16:52:10.814Z,36.98
2018-06-30T16:54:39.019Z,37.71
2018-06-30T16:57:07.288Z,36.49
2018-06-30T16:59:35.698Z,35.96
2018-06-30T17:02:04.186Z,36.05
2018-06-30T17:04:32.624Z,35.71
2018-06-30T17:07:00.874Z,35.37
2018-06-30T17:09:29.870Z,35.57
2018-06-30T17:11:58.784Z,35.22
2018-06-30T17:14:27.270Z,35.26
2018-06-30T17:16:55.559Z,35.77
2018-06-30T17:19:23.730Z,34.58
2018-06-30T17:21:52.946Z,35.59
2018-06-30T17:24:21.344Z,35.41
2018-06-30T17:26:49.690Z,34.62
2018-06-30T17:29:18.139Z,34.17
2018-06-30T17:31:46.455Z,35.64
2018-06-30T17:34:14.760Z,35.12
2018-06-30T17:36:43.942Z,34.87
2018-06-30T17:39:12.478Z,34.38
2018-06-30T17:41:41.046Z,35.07
2018-06-30T17:44:09.738Z,34.37
2018-06-30T17:46:38.550Z,34.25
2018-06-30T17:49:07.487Z,33.88
2018-06-30T17:51:35.823Z,34.65
2018-06-30T17:54:04.680Z,32.83
2018-06-30T17:56:33.383Z,31.86
2018-06-30T17:59:01.822Z,32.71
2018-06-30T18:01:30.588Z,31.87
2018-06-30T18:03:59.089Z,31.75
2018-06-30T18:06:27.409Z,31.84
2018-06-30T18:08:55.746Z,32.86
2018-06-30T18:11:24.394Z,32.77
2018-06-30T18:13:53.002Z,32.18
2018-06-30T18:16:21.358Z,32.20
2018-06-30T18:18:49.802Z,32.51
2018-06-30T18:21:18.107Z,30.87
2018-06-30T18:23:46.364Z,30.92
2018-06-30T18:26:15.047Z,32.16
2018-06-30T18:28:43.885Z,30.50
2018-06-30T18:31:12.140Z,29.35
2018-06-30T18:33:41.212Z,30.12
2018-06-30T18:36:09.713Z,29.45
2018-06-30T18:38:38.475Z,29.23
2018-06-30T18:41:06.886Z,28.93
2018-06-30T18:43:35.247Z,28.04
2018-06-30T18:46:03.824Z,28.52
2018-06-30T18:48:32.567Z,28.15
2018-06-30T18:51:00.860Z,26.95
2018-06-30T18:53:33.693Z,28.00
2018-06-30T18:56:02.180Z,27.78
2018-06-30T18:58:30.506Z,27.29
2018-06-30T19:00:58.915Z,27.65
2018-06-30T19:03:27.338Z,27.84
2018-06-30T19:05:55.922Z,28.88
2018-06-30T19:08:24.338Z,26.98
2018-06-30T19:10:52.702Z,28.15
2018-06-30T19:13:21.116Z,27.03
2018-06-30T19:15:49.397Z,26.75
2018-06-30T19:18:17.674Z,27.26
2018-06-30T19:20:46.137Z,27.35
2018-06-30T19:23:14.722Z,27.67
2018-06-30T19:25:42.991Z,26.64
2018-06-30T19:28:11.337Z,25.97
2018-06-30T19:30:40.168Z,26.46
2018-06-30T19:33:08.713Z,26.17
2018-06-30T19:35:37.398Z,25.68
2018-06-30T19:38:05.855Z,26.66
2018-06-30T19:40:34.319Z,25.30
2018-06-30T19:43:02.698Z,25.45
2018-06-30T19:45:31.378Z,24.69
2018-06-30T19:48:04.239Z,25.21
2018-06-30T19:50:32.731Z,25.11
2018-06-30T19:53:01.183Z,24.84
2018-06-30T19:55:29.444Z,24.66
2018-06-30T19:57:57.762Z,24.92
2018-06-30T20:00:26.125Z,25.44
2018-06-30T20:02:54.518Z,25.53
2018-06-30T20:05:22.848Z,24.44
2018-06-30T20:07:53.847Z,25.14
2018-06-30T20:10:23.038Z,25.03
2018-06-30T20:12:51.413Z,24.66
2018-06-30T20:15:20.088Z,25.04
2018-06-30T20:17:48.364Z,24.57
2018-06-30T20:20:16.702Z,25.42
2018-06-30T20:22:45.403Z,24.64
2018-06-30T20:25:13.626Z,24.85
2018-06-30T20:27:42.178Z,25.27
2018-06-30T20:30:10.424Z,25.25
2018-06-30T20:32:43.001Z,25.19
2018-06-30T20:35:11.411Z,25.12
2018-06-30T20:37:39.795Z,25.72
2018-06-30T20:40:08.288Z,25.73
2018-06-30T20:42:36.716Z,25.23
2018-06-30T20:45:05.424Z,25.71
2018-06-30T20:47:33.726Z,25.40
2018-06-30T20:50:05.775Z,26.26
2018-06-30T20:52:34.356Z,25.56
2018-06-30T20:55:02.716Z,26.45
2018-06-30T20:57:33.800Z,26.45
2018-06-30T21:00:02.811Z,26.32
2018-06-30T21:02:33.080Z,26.76
2018-06-30T21:05:02.931Z,26.08
2018-06-30T21:07:31.254Z,26.60
2018-06-30T21:09:59.587Z,26.23
2018-06-30T21:12:28.776Z,26.24
2018-06-30T21:14:57.262Z,27.52
2018-06-30T21:17:27.160Z,26.93
2018-06-30T21:19:55.588Z,26.86
2018-06-30T21:22:25.371Z,27.22
2018-06-30T21:24:58.628Z,27.17
2018-06-30T21:27:26.980Z,27.08
2018-06-30T21:29:55.488Z,26.80
2018-06-30T21:32:24.839Z,27.43
2018-06-30T21:34:53.427Z,27.58
2018-06-30T21:37:22.023Z,27.48
2018-06-30T21:39:51.042Z,27.70
2018-06-30T21:42:21.179Z,28.29
2018-06-30T21:44:49.550Z,28.20
2018-06-30T21:47:17.870Z,27.52
2018-06-30T21:49:46.219Z,28.60
2018-06-30T21:52:14.499Z,27.86
2018-06-30T21:54:43.062Z,28.33
2018-06-30T21:57:11.357Z,27.43
2018-06-30T21:59:40.176Z,27.96
2018-06-30T22:02:09.122Z,28.69
2018-06-30T22:04:38.214Z,27.63
2018-06-30T22:07:06.787Z,28.04
2018-06-30T22:09:35.452Z,28.16
2018-06-30T22:12:04.888Z,28.71
2018-06-30T22:14:33.292Z,28.54
2018-06-30T22:17:02.031Z,28.78
2018-06-30T22:19:30.343Z,28.25
2018-06-30T22:21:59.308Z,29.17
2018-06-30T22:24:28.088Z,28.39
2018-06-30T22:26:57.342Z,28.55
2018-06-30T22:29:25.844Z,28.58
2018-06-30T22:31:54.108Z,28.64
2018-06-30T22:34:23.195Z,28.63
2018-06-30T22:36:56.276Z,29.20
2018-06-30T22:39:41.823Z,29.62
2018-06-30T22:42:10.465Z,29.28
2018-06-30T22:44:38.929Z,29.16
2018-06-30T22:47:08.033Z,29.53
2018-06-30T22:49:36.259Z,30.00
2018-06-30T22:52:05.093Z,30.38
2018-06-30T22:54:33.647Z,29.83
2018-06-30T22:57:02.775Z,29.84
2018-06-30T22:59:31.028Z,30.60
2018-06-30T23:02:00.027Z,30.08
2018-06-30T23:04:28.623Z,30.53
2018-06-30T23:06:57.047Z,30.81
2018-06-30T23:09:25.520Z,31.61
2018-06-30T23:11:53.726Z,30.66
2018-06-30T23:14:22.225Z,31.68
2018-06-30T23:16:50.457Z,31.87
2018-06-30T23:19:18.653Z,31.48
2018-06-30T23:21:47.510Z,31.41
2018-06-30T23:24:16.086Z,32.04
2018-06-30T23:26:44.527Z,31.80
2018-06-30T23:29:13.269Z,32.40
2018-06-30T23:31:41.718Z,32.60
2018-06-30T23:34:09.940Z,32.10
2018-06-30T23:36:38.338Z,32.91
2018-06-30T23:39:09.893Z,32.56
2018-06-30T23:41:38.721Z,33.01
2018-06-30T23:44:07.885Z,33.34
2018-06-30T23:46:36.368Z,32.84
2018-06-30T23:49:05.285Z,32.34
2018-06-30T23:51:33.527Z,32.92
2018-06-30T23:54:02.542Z,32.86
2018-06-30T23:56:30.925Z,33.32
2018-06-30T23:58:59.282Z,33.06
